Time;durP1;ratioP1;P1;durP2;ratioP2;P2;SDS_P1;SDS_P2;PMS_P1;PMS_P2;Temp;Humidity;BMP_temperature;BMP_pressure;BME280_temperature;BME280_humidity;BME280_pressure;Samples;Min_cycle;Max_cycle;Signal;HPM_P1;HPM_P2
2022/09/21 00:00:12;;;;;;;4.53;3.70;;;8.50;99.90;;;;;;5055697;28;20209;-82
2022/09/21 00:02:39;;;;;;;5.77;3.47;;;8.50;99.90;;;;;;5057062;28;20191;-81
2022/09/21 00:05:08;;;;;;;4.27;3.53;;;8.50;99.90;;;;;;5055776;28;20233;-82
2022/09/21 00:07:35;;;;;;;5.97;3.90;;;8.40;99.90;;;;;;5056882;28;20199;-81
2022/09/21 00:10:02;;;;;;;7.03;3.73;;;8.40;99.90;;;;;;5047071;28;20221;-81
2022/09/21 00:12:29;;;;;;;7.10;3.83;;;8.40;99.90;;;;;;5042269;28;20224;-82
2022/09/21 00:14:56;;;;;;;5.17;3.80;;;8.40;99.90;;;;;;5054266;28;20233;-81
2022/09/21 00:17:23;;;;;;;8.83;4.20;;;8.40;99.90;;;;;;5056391;28;20195;-81
2022/09/21 00:19:51;;;;;;;5.43;3.93;;;8.30;99.90;;;;;;5054656;28;20207;-81
2022/09/21 00:22:20;;;;;;;6.27;3.60;;;8.30;99.90;;;;;;5055119;28;20663;-82
2022/09/21 00:24:46;;;;;;;5.97;3.87;;;8.30;99.90;;;;;;5054788;28;20223;-82
2022/09/21 00:27:13;;;;;;;5.67;4.00;;;8.30;99.90;;;;;;5054105;28;20717;-82
2022/09/21 00:29:40;;;;;;;9.37;4.20;;;8.30;99.90;;;;;;5054844;28;20210;-81
2022/09/21 00:32:06;;;;;;;5.80;3.43;;;8.30;99.90;;;;;;5054664;28;20221;-81
2022/09/21 00:34:33;;;;;;;8.60;4.07;;;8.30;99.90;;;;;;5055356;28;20214;-81
2022/09/21 00:37:00;;;;;;;6.23;4.33;;;8.30;99.90;;;;;;5053948;28;20213;-81
2022/09/21 00:39:28;;;;;;;7.07;4.17;;;8.30;99.90;;;;;;5055104;28;20194;-81
2022/09/21 00:41:55;;;;;;;6.27;4.23;;;8.30;99.90;;;;;;5054752;28;20203;-81
2022/09/21 00:44:28;;;;;;;7.00;4.47;;;8.30;99.90;;;;;;5046240;28;20208;-81
2022/09/21 00:46:57;;;;;;;7.00;4.23;;;8.20;99.90;;;;;;5047077;28;20286;-81
2022/09/21 00:49:26;;;;;;;8.07;4.17;;;8.30;99.90;;;;;;5054413;28;20211;-81
2022/09/21 00:51:53;;;;;;;6.63;4.17;;;8.20;99.90;;;;;;5053718;28;20245;-81
2022/09/21 00:54:25;;;;;;;5.47;4.07;;;8.20;99.90;;;;;;5053918;28;20211;-81
2022/09/21 00:56:55;;;;;;;5.73;4.40;;;8.20;99.90;;;;;;5053683;28;20210;-81
2022/09/21 00:59:23;;;;;;;8.00;3.83;;;8.10;99.90;;;;;;5053468;28;20192;-81
2022/09/21 01:01:50;;;;;;;6.13;4.40;;;8.00;99.90;;;;;;5053271;28;20205;-81
2022/09/21 01:04:18;;;;;;;7.67;4.53;;;8.10;99.90;;;;;;5053335;28;20211;-81
2022/09/21 01:06:46;;;;;;;5.83;4.23;;;8.10;99.90;;;;;;5053206;28;20310;-82
2022/09/21 01:09:14;;;;;;;6.60;4.33;;;8.10;99.90;;;;;;5052486;28;20259;-81
2022/09/21 01:11:50;;;;;;;7.43;4.33;;;8.10;99.90;;;;;;5052469;28;20226;-81
2022/09/21 01:14:38;;;;;;;7.13;4.40;;;8.10;99.90;;;;;;5052215;28;20191;-81
2022/09/21 01:17:13;;;;;;;8.40;4.60;;;8.10;99.90;;;;;;5045678;28;20249;-82
2022/09/21 01:19:57;;;;;;;4.93;3.90;;;7.90;99.90;;;;;;5052462;28;20202;-81
2022/09/21 01:22:37;;;;;;;5.90;4.73;;;8.00;99.90;;;;;;5052082;28;20179;-81
2022/09/21 01:25:13;;;;;;;7.00;4.43;;;7.90;99.90;;;;;;5052189;28;20234;-81
2022/09/21 01:28:01;;;;;;;6.40;4.37;;;7.90;99.90;;;;;;5051054;28;20222;-82
2022/09/21 01:30:32;;;;;;;6.20;4.20;;;8.00;99.90;;;;;;5051958;28;20205;-82
2022/09/21 01:33:06;;;;;;;6.77;4.73;;;8.00;99.90;;;;;;5052037;28;20600;-81
2022/09/21 01:35:38;;;;;;;8.00;4.43;;;7.90;99.90;;;;;;5055697;28;20231;-82
2022/09/21 01:38:08;;;;;;;5.83;4.37;;;7.90;99.90;;;;;;5055154;28;20195;-81
2022/09/21 01:40:42;;;;;;;5.50;4.10;;;7.90;99.90;;;;;;5055222;28;20269;-81
2022/09/21 01:43:14;;;;;;;8.27;4.70;;;7.90;99.90;;;;;;5054352;28;20203;-81
2022/09/21 01:45:46;;;;;;;5.73;4.27;;;7.80;99.90;;;;;;5054366;28;20618;-81
2022/09/21 01:48:15;;;;;;;8.10;4.33;;;7.70;99.90;;;;;;5055351;28;20241;-81
2022/09/21 01:50:46;;;;;;;6.17;4.43;;;7.70;99.90;;;;;;5054296;28;20206;-81
2022/09/21 01:53:19;;;;;;;6.63;4.47;;;7.70;99.90;;;;;;5054703;28;20242;-81
2022/09/21 01:55:50;;;;;;;6.60;4.97;;;7.80;99.90;;;;;;5055152;28;20648;-81
2022/09/21 01:58:23;;;;;;;8.93;4.97;;;7.80;99.90;;;;;;5057690;28;20199;-81
2022/09/21 02:00:55;;;;;;;7.40;5.17;;;7.80;99.90;;;;;;5057125;28;20582;-81
2022/09/21 02:03:27;;;;;;;7.07;4.50;;;7.80;99.90;;;;;;5057559;28;20202;-81
2022/09/21 02:05:56;;;;;;;7.00;4.80;;;7.70;99.90;;;;;;5057126;28;20598;-81
2022/09/21 02:08:25;;;;;;;7.80;5.00;;;7.70;99.90;;;;;;5058468;28;20225;-82
2022/09/21 02:10:53;;;;;;;7.53;4.70;;;7.70;99.90;;;;;;5052997;28;20223;-81
2022/09/21 02:13:26;;;;;;;7.27;4.47;;;7.60;99.90;;;;;;5057749;28;20766;-82
2022/09/21 02:16:17;;;;;;;6.70;5.30;;;7.60;99.90;;;;;;5057316;28;20222;-82
2022/09/21 02:18:53;;;;;;;9.50;5.27;;;7.70;99.90;;;;;;5058755;28;20655;-81
2022/09/21 02:21:28;;;;;;;6.70;5.07;;;7.60;99.90;;;;;;5057069;28;20610;-82
2022/09/21 02:24:05;;;;;;;7.30;5.00;;;7.60;99.90;;;;;;5057390;28;20199;-82
2022/09/21 02:26:37;;;;;;;6.60;4.87;;;7.50;99.90;;;;;;5054559;28;20256;-81
2022/09/21 02:29:16;;;;;;;8.87;5.47;;;7.50;99.90;;;;;;5047592;28;20199;-82
2022/09/21 02:31:51;;;;;;;8.30;5.20;;;7.50;99.90;;;;;;5057417;28;20611;-81
2022/09/21 02:34:27;;;;;;;9.07;5.03;;;7.50;99.90;;;;;;5057098;28;20580;-82
2022/09/21 02:36:58;;;;;;;7.63;5.03;;;7.40;99.90;;;;;;5058141;28;20209;-81
2022/09/21 02:39:33;;;;;;;8.90;5.30;;;7.40;99.90;;;;;;5058246;28;20207;-81
2022/09/21 02:42:06;;;;;;;9.33;5.80;;;7.50;99.90;;;;;;5056981;28;20613;-82
2022/09/21 02:44:39;;;;;;;8.97;5.47;;;7.50;99.90;;;;;;5057084;28;20207;-81
2022/09/21 02:47:12;;;;;;;8.30;5.77;;;7.50;99.90;;;;;;5057812;28;20196;-81
2022/09/21 02:49:43;;;;;;;8.40;5.23;;;7.40;99.90;;;;;;5056610;28;20575;-81
2022/09/21 02:52:13;;;;;;;8.97;5.63;;;7.40;99.90;;;;;;5057540;28;20218;-81
2022/09/21 02:54:42;;;;;;;8.30;5.57;;;7.40;99.90;;;;;;5057207;28;20206;-81
2022/09/21 02:57:11;;;;;;;7.53;5.60;;;7.40;99.90;;;;;;5052778;28;20664;-81
2022/09/21 02:59:38;;;;;;;9.27;5.87;;;7.40;99.90;;;;;;5056711;28;20231;-81
2022/09/21 03:02:05;;;;;;;7.80;5.50;;;7.30;99.90;;;;;;5057444;28;20214;-81
2022/09/21 03:04:34;;;;;;;8.17;5.60;;;7.40;99.90;;;;;;5056025;28;20202;-81
2022/09/21 03:07:01;;;;;;;6.23;5.00;;;7.30;99.90;;;;;;5047721;28;20237;-81
2022/09/21 03:09:27;;;;;;;9.10;5.00;;;7.20;99.90;;;;;;5048249;28;20207;-81
2022/09/21 03:11:54;;;;;;;8.07;4.93;;;7.20;99.90;;;;;;5056740;28;20225;-82
2022/09/21 03:14:21;;;;;;;7.27;5.70;;;7.20;99.90;;;;;;5055763;28;20557;-82
2022/09/21 03:16:48;;;;;;;9.17;6.40;;;7.20;99.90;;;;;;5056771;28;20312;-82
2022/09/21 03:19:15;;;;;;;8.37;5.40;;;7.20;99.90;;;;;;5056153;28;20202;-82
2022/09/21 03:21:43;;;;;;;7.03;5.70;;;7.30;99.90;;;;;;5056950;28;20279;-82
2022/09/21 03:24:10;;;;;;;7.27;5.47;;;7.30;99.90;;;;;;5057338;28;20234;-82
2022/09/21 03:26:37;;;;;;;9.00;5.90;;;7.20;99.90;;;;;;5056703;28;20233;-82
2022/09/21 03:29:04;;;;;;;9.30;5.20;;;7.20;99.90;;;;;;5055617;28;20211;-82
2022/09/21 03:31:31;;;;;;;7.27;4.93;;;7.10;99.90;;;;;;5056997;28;20369;-82
2022/09/21 03:33:58;;;;;;;12.93;6.20;;;7.00;99.90;;;;;;5056177;28;20776;-82
2022/09/21 03:36:25;;;;;;;19.70;13.43;;;7.00;99.90;;;;;;5056474;28;20703;-82
2022/09/21 03:38:53;;;;;;;12.20;7.13;;;7.10;99.90;;;;;;5056481;28;20213;-82
2022/09/21 03:41:20;;;;;;;8.93;6.47;;;7.10;99.90;;;;;;5056334;28;20214;-81
2022/09/21 03:43:46;;;;;;;7.00;5.10;;;7.00;99.90;;;;;;5056448;28;20587;-82
2022/09/21 03:46:13;;;;;;;10.83;5.37;;;7.10;99.90;;;;;;5049253;28;20598;-82
2022/09/21 03:48:41;;;;;;;9.17;5.40;;;7.10;99.90;;;;;;5055545;28;20585;-82
2022/09/21 03:51:08;;;;;;;11.30;6.00;;;7.00;99.90;;;;;;5056307;28;20211;-82
2022/09/21 03:53:34;;;;;;;10.53;5.83;;;7.10;99.90;;;;;;5055049;28;20223;-82
2022/09/21 03:56:03;;;;;;;8.33;5.63;;;7.10;99.90;;;;;;5056834;28;20601;-82
2022/09/21 03:58:29;;;;;;;9.27;5.33;;;7.00;99.90;;;;;;5056703;28;20596;-82
2022/09/21 04:01:01;;;;;;;8.33;5.40;;;7.10;99.90;;;;;;5056036;28;20286;-82
2022/09/21 04:03:28;;;;;;;7.60;5.53;;;6.90;99.90;;;;;;5056060;28;20249;-82
2022/09/21 04:05:55;;;;;;;9.03;5.87;;;6.90;99.90;;;;;;5051030;28;20592;-82
2022/09/21 04:08:22;;;;;;;7.77;5.90;;;6.90;99.90;;;;;;5035597;28;20203;-82
2022/09/21 04:10:49;;;;;;;7.53;5.40;;;7.00;99.90;;;;;;5047173;28;20583;-82
2022/09/21 04:13:17;;;;;;;11.33;6.10;;;6.90;99.90;;;;;;5051139;28;20215;-82
2022/09/21 04:15:44;;;;;;;9.00;6.07;;;6.80;99.90;;;;;;5055197;28;20229;-82
2022/09/21 04:18:11;;;;;;;9.47;6.30;;;6.70;99.90;;;;;;5055349;28;20229;-81
2022/09/21 04:20:37;;;;;;;10.53;6.47;;;6.70;99.90;;;;;;5055242;28;20332;-82
2022/09/21 04:23:06;;;;;;;8.97;6.27;;;6.70;99.90;;;;;;5054871;28;20207;-82
2022/09/21 04:25:33;;;;;;;8.40;6.03;;;6.70;99.90;;;;;;5054286;28;20260;-82
2022/09/21 04:28:00;;;;;;;10.70;6.30;;;6.60;99.90;;;;;;5054429;28;20203;-82
2022/09/21 04:30:28;;;;;;;9.50;6.10;;;6.60;99.90;;;;;;5054341;28;20231;-82
2022/09/21 04:32:55;;;;;;;10.87;7.03;;;6.60;99.90;;;;;;5055445;28;20223;-82
2022/09/21 04:35:22;;;;;;;21.00;11.13;;;6.50;99.90;;;;;;5054319;28;20234;-82
2022/09/21 04:37:48;;;;;;;13.73;7.63;;;6.50;99.90;;;;;;5055077;28;20252;-82
2022/09/21 04:40:16;;;;;;;9.50;5.93;;;6.50;99.90;;;;;;5053417;28;20233;-82
2022/09/21 04:42:42;;;;;;;8.33;5.57;;;6.50;99.90;;;;;;5054306;28;20293;-82
2022/09/21 04:45:10;;;;;;;11.90;6.20;;;6.40;99.90;;;;;;5053774;28;20770;-82
2022/09/21 04:47:38;;;;;;;9.43;5.33;;;6.50;99.90;;;;;;5053425;28;20202;-82
2022/09/21 04:50:06;;;;;;;11.30;6.07;;;6.50;99.90;;;;;;5053534;28;20706;-82
2022/09/21 04:52:33;;;;;;;9.63;5.70;;;6.40;99.90;;;;;;5049801;28;20223;-82
2022/09/21 04:55:00;;;;;;;9.80;5.77;;;6.40;99.90;;;;;;5045327;28;20233;-82
2022/09/21 04:57:26;;;;;;;8.80;5.63;;;6.40;99.90;;;;;;5044119;28;20214;-82
2022/09/21 04:59:54;;;;;;;7.87;5.50;;;6.40;99.90;;;;;;5052513;28;20285;-82
2022/09/21 05:02:20;;;;;;;8.10;5.40;;;6.30;99.90;;;;;;5052422;28;20311;-82
2022/09/21 05:04:49;;;;;;;7.43;5.43;;;6.30;99.90;;;;;;5052204;28;20318;-82
2022/09/21 05:07:16;;;;;;;11.23;5.27;;;6.20;99.90;;;;;;5055206;28;20206;-82
2022/09/21 05:12:28;;;;;;;9.47;5.83;;;6.40;99.90;;;;;;5055399;28;20304;-82
2022/09/21 05:14:55;;;;;;;8.80;5.53;;;6.30;99.90;;;;;;5055558;28;20305;-82
2022/09/21 05:17:23;;;;;;;10.07;5.77;;;6.40;99.90;;;;;;5054765;28;20244;-82
2022/09/21 05:19:52;;;;;;;7.00;4.83;;;6.40;99.90;;;;;;5054399;28;20207;-82
2022/09/21 05:22:19;;;;;;;13.23;5.70;;;6.20;99.90;;;;;;5055588;28;20282;-82
2022/09/21 05:24:46;;;;;;;11.93;6.23;;;6.20;99.90;;;;;;5054974;28;20719;-82
2022/09/21 05:27:13;;;;;;;13.20;5.60;;;6.20;99.90;;;;;;5055213;28;20221;-81
2022/09/21 05:29:41;;;;;;;14.30;7.33;;;6.30;99.90;;;;;;5053651;28;20241;-82
2022/09/21 05:32:14;;;;;;;17.50;6.27;;;6.30;99.90;;;;;;5049279;28;20204;-82
2022/09/21 05:34:49;;;;;;;21.60;6.40;;;6.30;99.90;;;;;;5053131;28;20197;-83
2022/09/21 05:37:36;;;;;;;17.00;6.00;;;6.20;99.90;;;;;;5048071;28;20197;-82
2022/09/21 05:40:04;;;;;;;24.70;6.43;;;6.20;99.90;;;;;;5043674;28;20210;-82
2022/09/21 05:42:32;;;;;;;28.73;6.40;;;6.20;99.90;;;;;;5054068;28;20195;-82
2022/09/21 05:44:59;;;;;;;26.17;5.90;;;6.10;99.90;;;;;;5054232;28;20439;-82
2022/09/21 05:47:36;;;;;;;22.33;5.90;;;6.10;99.90;;;;;;5055308;28;20199;-82
2022/09/21 05:50:17;;;;;;;12.10;5.70;;;6.00;99.90;;;;;;5053828;28;20199;-82
2022/09/21 05:52:53;;;;;;;14.57;5.40;;;6.10;99.90;;;;;;5055402;28;20226;-82
2022/09/21 05:55:31;;;;;;;15.03;5.40;;;6.20;99.90;;;;;;5053796;28;20716;-82
2022/09/21 05:58:10;;;;;;;19.40;5.87;;;6.10;99.90;;;;;;5051829;28;20598;-82
2022/09/21 06:00:45;;;;;;;36.40;6.10;;;6.20;99.90;;;;;;5054709;28;20281;-82
2022/09/21 06:03:27;;;;;;;17.27;5.37;;;6.10;99.90;;;;;;5055207;28;20221;-82
2022/09/21 06:05:54;;;;;;;16.73;6.53;;;6.40;99.90;;;;;;5051760;28;20222;-82
2022/09/21 06:08:22;;;;;;;25.50;6.10;;;6.50;99.90;;;;;;5046796;28;20206;-82
2022/09/21 06:10:49;;;;;;;17.20;6.10;;;6.50;99.90;;;;;;5046498;28;20219;-82
2022/09/21 06:13:16;;;;;;;20.83;6.07;;;6.50;99.90;;;;;;5049573;28;20219;-82
2022/09/21 06:15:43;;;;;;;22.80;6.07;;;6.50;99.90;;;;;;5055294;28;20266;-82
2022/09/21 06:18:10;;;;;;;13.17;5.87;;;6.40;99.90;;;;;;5054975;28;20607;-82
2022/09/21 06:20:37;;;;;;;16.90;6.00;;;6.50;99.90;;;;;;5053666;28;20204;-82
2022/09/21 06:23:04;;;;;;;22.37;7.03;;;6.70;99.90;;;;;;5055089;28;20567;-82
2022/09/21 06:25:33;;;;;;;17.53;7.47;;;6.80;99.90;;;;;;5054839;28;20306;-82
2022/09/21 06:28:03;;;;;;;15.63;6.80;;;6.80;99.90;;;;;;5055059;28;20214;-82
2022/09/21 06:30:30;;;;;;;15.40;7.70;;;7.00;99.90;;;;;;5053688;28;20211;-82
2022/09/21 06:33:00;;;;;;;18.17;7.70;;;7.00;99.90;;;;;;5055203;28;20229;-82
2022/09/21 06:35:27;;;;;;;18.27;7.57;;;7.20;99.90;;;;;;5054357;28;20601;-82
2022/09/21 06:37:58;;;;;;;20.03;8.77;;;7.20;99.90;;;;;;5055210;28;20207;-82
2022/09/21 06:40:26;;;;;;;21.20;8.77;;;7.20;99.90;;;;;;5053913;28;20207;-83
2022/09/21 06:42:58;;;;;;;16.10;7.60;;;7.20;99.90;;;;;;5058172;28;20214;-82
2022/09/21 06:45:25;;;;;;;21.43;9.47;;;7.30;99.90;;;;;;5049567;28;20223;-83
2022/09/21 06:47:51;;;;;;;20.33;10.33;;;7.40;99.90;;;;;;5044156;28;20192;-82
2022/09/21 06:50:19;;;;;;;21.70;10.37;;;7.50;99.90;;;;;;5045087;28;20199;-82
2022/09/21 06:52:46;;;;;;;16.90;8.93;;;7.50;99.90;;;;;;5049921;28;20227;-82
2022/09/21 06:55:13;;;;;;;17.77;8.53;;;7.70;99.90;;;;;;5058006;28;20247;-82
2022/09/21 06:57:40;;;;;;;16.20;9.47;;;7.70;99.90;;;;;;5057737;28;20214;-82
2022/09/21 07:00:11;;;;;;;16.63;10.17;;;8.00;99.90;;;;;;5056824;28;20205;-82
2022/09/21 07:02:37;;;;;;;17.10;7.97;;;7.90;99.90;;;;;;5058147;28;20579;-82
2022/09/21 07:05:05;;;;;;;23.37;9.70;;;8.00;99.90;;;;;;5058116;28;20219;-82
2022/09/21 07:07:32;;;;;;;15.07;7.67;;;7.90;99.90;;;;;;5058164;28;20635;-82
2022/09/21 07:09:59;;;;;;;23.80;9.27;;;8.10;99.90;;;;;;5058310;28;20582;-82
2022/09/21 07:12:28;;;;;;;15.73;8.93;;;8.30;99.90;;;;;;5057492;28;20209;-82
2022/09/21 07:14:55;;;;;;;19.03;9.10;;;8.50;99.90;;;;;;5055931;28;20235;-83
2022/09/21 07:17:23;;;;;;;14.60;8.20;;;8.60;99.90;;;;;;5058161;28;20207;-82
2022/09/21 07:19:49;;;;;;;14.87;8.67;;;8.50;99.90;;;;;;5056875;28;20377;-82
2022/09/21 07:22:16;;;;;;;19.73;9.83;;;8.60;99.90;;;;;;5057815;28;20206;-82
2022/09/21 07:24:44;;;;;;;17.20;8.60;;;8.70;99.90;;;;;;5056799;28;20217;-82
2022/09/21 07:27:11;;;;;;;12.63;6.70;;;8.80;99.90;;;;;;5057854;28;20202;-82
2022/09/21 07:29:37;;;;;;;15.67;9.00;;;8.70;99.90;;;;;;5056552;28;20207;-83
2022/09/21 07:32:04;;;;;;;13.17;8.50;;;8.80;99.90;;;;;;5056306;28;20718;-83
2022/09/21 07:34:36;;;;;;;16.17;9.30;;;9.20;99.90;;;;;;5047532;28;20229;-82
2022/09/21 07:37:04;;;;;;;15.50;8.30;;;10.50;99.90;;;;;;5051589;28;20218;-83
2022/09/21 07:39:31;;;;;;;11.03;6.60;;;10.50;99.90;;;;;;5043864;28;20252;-82
2022/09/21 07:41:58;;;;;;;14.27;7.23;;;10.00;99.90;;;;;;5056511;28;20294;-82
2022/09/21 07:44:25;;;;;;;12.93;7.23;;;9.70;99.90;;;;;;5057182;28;20203;-82
2022/09/21 07:46:52;;;;;;;14.90;7.60;;;9.70;99.90;;;;;;5057495;28;20659;-82
2022/09/21 07:49:19;;;;;;;14.30;8.13;;;9.90;99.90;;;;;;5057157;28;20213;-82
2022/09/21 07:51:47;;;;;;;12.97;8.00;;;9.70;99.90;;;;;;5055837;28;20631;-82
2022/09/21 07:54:14;;;;;;;12.30;6.00;;;9.70;99.90;;;;;;5056308;28;20226;-82
2022/09/21 07:59:04;;;;;;;14.07;6.70;;;9.80;99.90;;;;;;5055761;28;20235;-82
2022/09/21 07:59:31;;;;;;;13.77;6.83;;;9.90;99.90;;;;;;5055979;28;20277;-82
2022/09/21 08:01:58;;;;;;;13.53;6.77;;;10.00;99.90;;;;;;5055619;28;20302;-82
2022/09/21 08:04:25;;;;;;;13.83;7.10;;;10.20;99.90;;;;;;5055925;28;20210;-81
2022/09/21 08:06:54;;;;;;;11.97;6.50;;;10.20;99.90;;;;;;5043251;28;20277;-82
2022/09/21 08:09:21;;;;;;;14.13;7.20;;;10.20;99.90;;;;;;5051154;28;20230;-82
2022/09/21 08:11:48;;;;;;;12.20;7.10;;;10.20;99.90;;;;;;5052445;28;20294;-82
2022/09/21 08:14:18;;;;;;;14.40;8.10;;;10.30;99.90;;;;;;5041516;28;20227;-82
2022/09/21 08:16:45;;;;;;;15.00;9.03;;;10.40;99.90;;;;;;5054399;28;20710;-82
2022/09/21 08:19:12;;;;;;;15.87;7.97;;;10.40;99.90;;;;;;5053665;28;20659;-82
2022/09/21 08:21:39;;;;;;;17.60;9.03;;;10.50;99.90;;;;;;5055085;28;20689;-82
2022/09/21 08:24:08;;;;;;;18.17;9.27;;;10.50;99.90;;;;;;5054532;28;20290;-82
2022/09/21 08:26:34;;;;;;;16.80;8.97;;;10.50;99.90;;;;;;5053881;28;20703;-83
2022/09/21 08:29:01;;;;;;;19.77;8.80;;;10.60;99.90;;;;;;5053149;28;20209;-82
2022/09/21 08:31:29;;;;;;;15.80;7.83;;;10.60;99.90;;;;;;5053566;28;20234;-82
2022/09/21 08:33:57;;;;;;;17.17;8.20;;;10.50;99.90;;;;;;5052538;28;20306;-83
2022/09/21 08:36:24;;;;;;;15.20;7.60;;;10.50;99.90;;;;;;5052134;28;20702;-82
2022/09/21 08:38:51;;;;;;;13.23;7.20;;;10.70;99.90;;;;;;5052751;28;20268;-82
2022/09/21 08:41:23;;;;;;;15.07;8.27;;;10.70;99.90;;;;;;5054355;28;20238;-82
2022/09/21 08:43:54;;;;;;;10.97;6.53;;;10.80;99.90;;;;;;5048848;28;20622;-82
2022/09/21 08:46:27;;;;;;;12.90;6.77;;;10.90;99.90;;;;;;5048537;28;20229;-82
2022/09/21 08:48:58;;;;;;;13.80;7.13;;;11.00;99.90;;;;;;5035699;28;20211;-82
2022/09/21 08:51:30;;;;;;;15.87;7.40;;;11.10;99.90;;;;;;5045237;28;20202;-82
2022/09/21 08:54:01;;;;;;;11.27;6.07;;;11.10;99.90;;;;;;5056437;28;20211;-83
2022/09/21 08:56:29;;;;;;;12.90;5.97;;;11.20;99.90;;;;;;5055042;28;20242;-82
2022/09/21 08:58:56;;;;;;;9.70;5.70;;;11.20;99.90;;;;;;5056777;28;20294;-83
2022/09/21 09:01:39;;;;;;;10.37;5.53;;;11.30;99.90;;;;;;5055482;28;20214;-83
2022/09/21 09:04:26;;;;;;;12.63;4.90;;;11.40;99.90;;;;;;5054818;28;20832;-83
2022/09/21 09:07:07;;;;;;;11.93;5.97;;;11.70;99.90;;;;;;5055887;28;20290;-82
2022/09/21 09:10:21;;;;;;;11.20;6.00;;;12.10;99.90;;;;;;5054764;28;20198;-83
2022/09/21 09:13:02;;;;;;;12.87;5.60;;;12.30;99.90;;;;;;5007695;28;20215;-83
2022/09/21 09:15:48;;;;;;;9.13;5.03;;;13.00;99.90;;;;;;5048318;28;20329;-82
2022/09/21 09:18:21;;;;;;;9.30;4.83;;;13.30;99.90;;;;;;5055611;28;20194;-83
2022/09/21 09:20:53;;;;;;;9.43;4.50;;;13.70;99.90;;;;;;5055281;28;20232;-83
2022/09/21 09:23:24;;;;;;;8.30;4.23;;;13.90;1.00;;;;;;5055653;28;20294;-83
2022/09/21 09:25:54;;;;;;;9.93;5.57;;;14.50;1.00;;;;;;5050686;28;20235;-83
2022/09/21 09:28:28;;;;;;;12.37;4.27;;;14.70;1.00;;;;;;5044274;28;20262;-83
2022/09/21 09:31:00;;;;;;;8.57;4.27;;;14.50;1.00;;;;;;5034600;28;20299;-83
2022/09/21 09:33:31;;;;;;;9.13;4.50;;;14.90;1.00;;;;;;5045775;28;20220;-82
2022/09/21 09:36:02;;;;;;;10.07;4.73;;;15.00;1.00;;;;;;5055585;28;20227;-82
2022/09/21 09:38:33;;;;;;;12.50;6.53;;;15.10;1.00;;;;;;5055223;28;20202;-82
2022/09/21 09:41:14;;;;;;;10.33;6.10;;;15.30;1.00;;;;;;5054822;28;20237;-83
2022/09/21 09:43:53;;;;;;;9.27;5.20;;;15.30;1.00;;;;;;5055668;28;20293;-83
2022/09/21 09:46:30;;;;;;;7.82;3.80;;;15.90;99.90;;;;;;5054662;28;20565;-83
2022/09/21 09:49:14;;;;;;;11.13;5.30;;;15.90;99.90;;;;;;5055325;28;20289;-83
2022/09/21 09:51:41;;;;;;;8.27;3.70;;;15.90;1.00;;;;;;5035022;28;20294;-83
2022/09/21 09:54:14;;;;;;;5.38;3.00;;;16.30;99.90;;;;;;5039750;28;20639;-83
2022/09/21 09:56:41;;;;;;;7.22;2.97;;;16.60;1.00;;;;;;5049536;28;20317;-83
2022/09/21 09:59:14;;;;;;;5.57;2.33;;;16.50;1.00;;;;;;5052767;28;20212;-83
2022/09/21 10:01:42;;;;;;;8.18;2.42;;;16.30;99.90;;;;;;5046024;28;20230;-83
2022/09/21 10:04:11;;;;;;;5.03;2.30;;;16.80;99.90;;;;;;5053678;28;20262;-83
2022/09/21 10:06:38;;;;;;;5.43;2.20;;;16.80;1.00;;;;;;5047286;28;20326;-83
2022/09/21 10:09:25;;;;;;;4.22;2.20;;;16.60;1.00;;;;;;5037270;28;20221;-83
2022/09/21 10:11:52;;;;;;;4.82;2.33;;;16.80;1.00;;;;;;5046983;28;20659;-83
2022/09/21 10:14:23;;;;;;;4.82;1.95;;;16.90;99.90;;;;;;5046527;28;20224;-83
2022/09/21 10:16:51;;;;;;;7.20;2.42;;;17.40;1.00;;;;;;5054105;28;20230;-83
2022/09/21 10:19:21;;;;;;;9.85;2.17;;;17.50;1.00;;;;;;5057299;28;20195;-84
2022/09/21 10:21:54;;;;;;;5.75;2.40;;;17.80;1.00;;;;;;5059234;28;20211;-83
2022/09/21 10:24:23;;;;;;;6.00;2.28;;;17.40;1.00;;;;;;5059172;28;20203;-84
2022/09/21 10:26:53;;;;;;;7.80;2.03;;;17.50;1.00;;;;;;5059405;28;20229;-83
2022/09/21 10:29:31;;;;;;;6.07;2.00;;;17.20;1.00;;;;;;5058427;28;20203;-84
2022/09/21 10:32:00;;;;;;;5.85;2.45;;;17.60;1.00;;;;;;5057598;28;20203;-83
2022/09/21 10:34:29;;;;;;;5.57;2.08;;;17.70;1.00;;;;;;5059113;28;20223;-84
2022/09/21 10:36:56;;;;;;;5.22;2.03;;;17.90;1.00;;;;;;5057966;28;20199;-84
2022/09/21 10:39:27;;;;;;;6.43;2.00;;;18.00;1.00;;;;;;5059115;28;20203;-83
2022/09/21 10:42:03;;;;;;;8.20;2.08;;;17.60;1.00;;;;;;5058123;28;20256;-83
2022/09/21 10:44:38;;;;;;;3.75;1.98;;;17.40;1.00;;;;;;5049923;28;20410;-83
2022/09/21 10:47:18;;;;;;;3.40;1.20;;;18.10;1.00;;;;;;5039217;28;20209;-83
2022/09/21 10:49:49;;;;;;;3.92;2.05;;;17.50;88.80;;;;;;5040837;28;20565;-84
2022/09/21 10:52:18;;;;;;;3.88;1.65;;;17.70;99.90;;;;;;5052371;28;20234;-84
2022/09/21 10:54:48;;;;;;;6.75;2.10;;;18.10;99.90;;;;;;5058983;28;20223;-84
2022/09/21 10:57:18;;;;;;;3.70;1.70;;;18.30;99.90;;;;;;5057249;28;20580;-83
2022/09/21 10:59:46;;;;;;;2.80;1.48;;;17.70;99.90;;;;;;5057896;28;20648;-84
2022/09/21 11:02:35;;;;;;;6.07;1.65;;;18.10;1.00;;;;;;5057204;28;20298;-84
2022/09/21 11:05:09;;;;;;;4.68;1.70;;;18.10;10.30;;;;;;5058237;28;20654;-84
2022/09/21 11:07:42;;;;;;;5.35;1.92;;;18.40;40.80;;;;;;5057970;28;20264;-85
2022/09/21 11:10:18;;;;;;;5.30;1.45;;;18.30;4.10;;;;;;5057129;28;20282;-84
2022/09/21 11:12:57;;;;;;;6.43;2.05;;;17.90;1.00;;;;;;5038736;28;20290;-84
2022/09/21 11:15:36;;;;;;;3.15;1.35;;;18.30;1.00;;;;;;5046117;28;20237;-84
2022/09/21 11:18:10;;;;;;;3.10;1.20;;;18.90;1.00;;;;;;5050581;28;20577;-85
2022/09/21 11:20:43;;;;;;;5.50;1.33;;;18.90;1.00;;;;;;5054838;28;20230;-84
2022/09/21 11:23:22;;;;;;;4.80;1.38;;;18.70;1.00;;;;;;5051937;28;20264;-84
2022/09/21 11:25:56;;;;;;;3.42;1.20;;;18.90;1.00;;;;;;5057178;28;20599;-83
2022/09/21 11:28:27;;;;;;;4.78;1.25;;;19.00;1.00;;;;;;5054798;28;20609;-83
2022/09/21 11:31:07;;;;;;;6.03;1.33;;;19.30;1.00;;;;;;5056744;28;20203;-83
2022/09/21 11:33:53;;;;;;;6.47;1.45;;;18.60;1.00;;;;;;5056231;28;20250;-82
2022/09/21 11:36:29;;;;;;;1.77;0.80;;;19.30;1.00;;;;;;5056101;28;20233;-83
2022/09/21 11:39:02;;;;;;;3.85;1.15;;;19.50;1.00;;;;;;5055555;28;20209;-82
2022/09/21 11:41:53;;;;;;;4.03;1.17;;;18.30;1.00;;;;;;5055700;28;20298;-82
2022/09/21 11:44:32;;;;;;;5.70;1.20;;;18.40;1.00;;;;;;5056296;28;20207;-83
2022/09/21 11:47:15;;;;;;;3.72;1.17;;;19.50;1.00;;;;;;5056104;28;20203;-83
2022/09/21 11:50:06;;;;;;;3.17;1.05;;;19.90;1.00;;;;;;5055621;28;20238;-82
2022/09/21 11:52:47;;;;;;;3.92;1.48;;;19.50;1.00;;;;;;5055128;28;20203;-82
2022/09/21 11:55:31;;;;;;;6.10;1.40;;;19.10;99.90;;;;;;5047055;28;20699;-82
2022/09/21 11:58:03;;;;;;;4.25;2.05;;;19.70;1.00;;;;;;5037816;28;20221;-83
2022/09/21 12:00:36;;;;;;;1.58;1.17;;;19.50;99.90;;;;;;5053306;28;20269;-82
2022/09/21 12:03:31;;;;;;;5.03;1.25;;;19.90;99.90;;;;;;5054176;28;20249;-81
2022/09/21 12:06:16;;;;;;;3.65;1.00;;;20.10;99.90;;;;;;5051629;28;20229;-82
2022/09/21 12:08:54;;;;;;;4.32;1.45;;;19.80;99.90;;;;;;5053124;28;20582;-83
2022/09/21 12:11:35;;;;;;;4.10;0.98;;;19.80;99.90;;;;;;5053672;28;20230;-84
2022/09/21 12:14:11;;;;;;;3.92;1.20;;;19.70;99.90;;;;;;5055027;28;20294;-84
2022/09/21 12:16:47;;;;;;;1.92;0.80;;;20.10;99.90;;;;;;5056747;28;20324;-84
2022/09/21 12:19:23;;;;;;;3.25;0.90;;;20.40;99.90;;;;;;5055821;28;20209;-84
2022/09/21 12:21:55;;;;;;;2.65;1.15;;;20.00;99.90;;;;;;5055952;28;20209;-82
2022/09/21 12:24:29;;;;;;;2.83;0.70;;;19.70;99.90;;;;;;5055473;28;20214;-84
2022/09/21 12:26:59;;;;;;;2.75;0.93;;;19.60;99.90;;;;;;5055981;28;20231;-84
2022/09/21 12:29:30;;;;;;;4.38;1.17;;;19.50;99.90;;;;;;5055306;28;20207;-85
2022/09/21 12:32:02;;;;;;;4.07;0.70;;;19.60;99.90;;;;;;5059451;28;20199;-84
2022/09/21 12:34:40;;;;;;;2.17;0.98;;;19.60;99.90;;;;;;5054722;28;20218;-84
2022/09/21 12:37:12;;;;;;;2.53;1.27;;;19.50;99.90;;;;;;5047170;28;20264;-84
2022/09/21 12:39:44;;;;;;;2.00;0.80;;;19.50;96.10;;;;;;5054564;28;20201;-84
2022/09/21 12:42:25;;;;;;;4.68;0.82;;;20.00;95.20;;;;;;5049663;28;20210;-84
2022/09/21 12:44:55;;;;;;;2.80;0.98;;;20.20;79.50;;;;;;5051080;28;20229;-83
2022/09/21 12:47:29;;;;;;;1.70;0.60;;;20.10;33.40;;;;;;5055259;28;20267;-84
2022/09/21 12:50:03;;;;;;;4.40;1.73;;;20.10;12.00;;;;;;5055259;28;20665;-84
2022/09/21 12:52:32;;;;;;;3.03;1.35;;;20.20;26.50;;;;;;5055362;28;20260;-84
2022/09/21 12:55:05;;;;;;;2.45;1.20;;;20.50;12.50;;;;;;5054722;28;20593;-84
2022/09/21 12:57:47;;;;;;;4.47;1.50;;;20.20;1.00;;;;;;5054936;28;20231;-84
2022/09/21 13:00:17;;;;;;;3.15;1.30;;;20.50;1.00;;;;;;5059007;28;20203;-83
2022/09/21 13:02:50;;;;;;;2.25;1.10;;;19.90;1.00;;;;;;5055254;28;20552;-85
2022/09/21 13:05:29;;;;;;;4.35;1.30;;;20.00;1.00;;;;;;5053594;28;20207;-84
2022/09/21 13:08:12;;;;;;;3.92;1.15;;;20.00;1.00;;;;;;5050888;28;20198;-84
2022/09/21 13:10:47;;;;;;;3.88;1.70;;;20.40;1.00;;;;;;5045626;28;20210;-84
2022/09/21 13:13:27;;;;;;;3.03;1.35;;;20.30;1.00;;;;;;5048606;28;20201;-84